Stallion Springs, California
Current Conditions -  °F | °C
As of 11:15 AM on Thursday 30 Oct 2014 (Local Time) from KTSP Reporting Station
Clear Clear  
Wind Chill: 72°   Ceiling: Unl
Heat Index: 72°   Visibility: 10mi
Dew Point: 18°   Wind: 14mph
Humidity: 13%   Direction: 110°ESE
Pressure: 30.13"   Gusts: 20mph
Location:  35.1338°N, 118.552°W
Report Text: KTSP 301815Z AUTO 11012G17KT 10SM CLR 22/M08 A3013 RMK AO2
Loading
Personal Weather Stations






























Interactive Weather Map
Tropical Storm Tracking
New forecast layout! Learn more

10-Day Weather Forecast

Advertisements
Track Severe Weather on mobile